sensor_id;sensor_type;location;lat;lon;timestamp;pressure;altitude;pressure_sealevel;temperature;humidity
51287;BME280;37364;46.974;18.916;2023-02-22T00:01:55;151399.00;;;4.16;100.00
51287;BME280;37364;46.974;18.916;2023-02-22T00:04:39;151379.66;;;4.09;100.00
51287;BME280;37364;46.974;18.916;2023-02-22T00:07:16;151364.19;;;4.03;100.00
51287;BME280;37364;46.974;18.916;2023-02-22T00:09:50;151351.31;;;3.97;100.00
51287;BME280;37364;46.974;18.916;2023-02-22T00:12:24;151335.84;;;3.91;100.00
51287;BME280;37364;46.974;18.916;2023-02-22T00:15:02;151326.81;;;3.88;100.00
51287;BME280;37364;46.974;18.916;2023-02-22T00:17:36;151326.81;;;3.88;100.00
51287;BME280;37364;46.974;18.916;2023-02-22T00:20:12;151333.28;;;3.90;100.00
51287;BME280;37364;46.974;18.916;2023-02-22T00:22:46;151315.25;;;3.83;100.00
51287;BME280;37364;46.974;18.916;2023-02-22T00:25:18;151343.59;;;3.94;100.00
51287;BME280;37364;46.974;18.916;2023-02-22T00:27:50;151348.75;;;3.96;100.00
51287;BME280;37364;46.974;18.916;2023-02-22T00:30:24;151379.66;;;4.09;100.00
51287;BME280;37364;46.974;18.916;2023-02-22T00:32:58;151341.00;;;3.93;100.00
51287;BME280;37364;46.974;18.916;2023-02-22T00:35:30;151339.72;;;3.93;100.00
51287;BME280;37364;46.974;18.916;2023-02-22T00:38:01;151380.94;;;4.09;100.00
51287;BME280;37364;46.974;18.916;2023-02-22T00:40:33;151350.03;;;3.97;100.00
51287;BME280;37364;46.974;18.916;2023-02-22T00:43:04;151348.75;;;3.96;100.00
51287;BME280;37364;46.974;18.916;2023-02-22T00:45:36;151331.97;;;3.90;100.00
51287;BME280;37364;46.974;18.916;2023-02-22T00:48:10;151313.97;;;3.83;100.00
51287;BME280;37364;46.974;18.916;2023-02-22T00:50:40;151292.03;;;3.74;100.00
51287;BME280;37364;46.974;18.916;2023-02-22T00:53:11;151275.31;;;3.67;100.00
51287;BME280;37364;46.974;18.916;2023-02-22T00:55:41;151263.75;;;3.63;100.00
51287;BME280;37364;46.974;18.916;2023-02-22T00:58:11;151244.41;;;3.55;100.00
51287;BME280;37364;46.974;18.916;2023-02-22T01:00:42;151235.38;;;3.51;100.00
51287;BME280;37364;46.974;18.916;2023-02-22T01:03:20;151222.50;;;3.46;100.00
51287;BME280;37364;46.974;18.916;2023-02-22T01:05:51;151223.78;;;3.47;100.00
51287;BME280;37364;46.974;18.916;2023-02-22T01:08:23;151204.44;;;3.39;100.00
51287;BME280;37364;46.974;18.916;2023-02-22T01:10:57;151222.50;;;3.46;100.00
51287;BME280;37364;46.974;18.916;2023-02-22T01:13:27;151227.66;;;3.48;100.00
51287;BME280;37364;46.974;18.916;2023-02-22T01:15:59;151303.66;;;3.79;100.00
51287;BME280;37364;46.974;18.916;2023-02-22T01:18:32;151310.09;;;3.81;100.00
51287;BME280;37364;46.974;18.916;2023-02-22T01:21:03;151351.31;;;3.97;100.00
51287;BME280;37364;46.974;18.916;2023-02-22T01:23:34;151356.44;;;4.00;100.00
51287;BME280;37364;46.974;18.916;2023-02-22T01:26:05;151357.78;;;4.00;100.00
51287;BME280;37364;46.974;18.916;2023-02-22T01:28:36;151369.34;;;4.05;100.00
51287;BME280;37364;46.974;18.916;2023-02-22T01:31:07;151350.03;;;3.97;100.00
51287;BME280;37364;46.974;18.916;2023-02-22T01:33:42;151328.16;;;3.88;100.00
51287;BME280;37364;46.974;18.916;2023-02-22T01:36:13;151308.81;;;3.81;100.00
51287;BME280;37364;46.974;18.916;2023-02-22T01:38:45;151283.03;;;3.70;100.00
51287;BME280;37364;46.974;18.916;2023-02-22T01:41:16;151279.19;;;3.69;100.00
51287;BME280;37364;46.974;18.916;2023-02-22T01:43:46;151286.88;;;3.72;100.00
51287;BME280;37364;46.974;18.916;2023-02-22T01:46:22;151268.91;;;3.65;100.00
51287;BME280;37364;46.974;18.916;2023-02-22T01:48:58;151272.72;;;3.66;100.00
51287;BME280;37364;46.974;18.916;2023-02-22T01:51:34;151258.53;;;3.61;100.00
51287;BME280;37364;46.974;18.916;2023-02-22T01:54:05;151265.00;;;3.63;100.00
51287;BME280;37364;46.974;18.916;2023-02-22T01:56:44;151261.16;;;3.62;100.00
51287;BME280;37364;46.974;18.916;2023-02-22T01:59:18;151249.56;;;3.57;100.00
51287;BME280;37364;46.974;18.916;2023-02-22T02:01:50;151261.16;;;3.62;100.00
51287;BME280;37364;46.974;18.916;2023-02-22T02:04:26;151335.84;;;3.91;100.00
51287;BME280;37364;46.974;18.916;2023-02-22T02:07:00;151330.69;;;3.89;100.00
51287;BME280;37364;46.974;18.916;2023-02-22T02:09:36;151356.44;;;4.00;100.00
51287;BME280;37364;46.974;18.916;2023-02-22T02:12:10;151359.06;;;4.01;100.00
51287;BME280;37364;46.974;18.916;2023-02-22T02:14:41;151375.78;;;4.07;100.00
51287;BME280;37364;46.974;18.916;2023-02-22T02:17:15;151396.38;;;4.15;100.00
51287;BME280;37364;46.974;18.916;2023-02-22T02:19:54;151396.38;;;4.15;100.00
51287;BME280;37364;46.974;18.916;2023-02-22T02:22:41;151431.22;;;4.29;100.00
51287;BME280;37364;46.974;18.916;2023-02-22T02:25:42;151437.66;;;4.32;100.00
51287;BME280;37364;46.974;18.916;2023-02-22T02:28:38;151411.91;;;4.22;100.00
51287;BME280;37364;46.974;18.916;2023-02-22T02:31:19;151405.41;;;4.19;100.00
51287;BME280;37364;46.974;18.916;2023-02-22T02:34:04;151409.28;;;4.21;100.00
51287;BME280;37364;46.974;18.916;2023-02-22T02:36:51;151446.69;;;4.35;100.00
51287;BME280;37364;46.974;18.916;2023-02-22T02:39:40;151449.25;;;4.36;100.00
51287;BME280;37364;46.974;18.916;2023-02-22T02:42:21;151446.69;;;4.35;100.00
51287;BME280;37364;46.974;18.916;2023-02-22T02:45:10;151466.03;;;4.43;100.00
51287;BME280;37364;46.974;18.916;2023-02-22T02:47:58;151428.63;;;4.28;100.00
51287;BME280;37364;46.974;18.916;2023-02-22T02:50:46;151442.81;;;4.34;100.00
51287;BME280;37364;46.974;18.916;2023-02-22T02:53:21;151458.28;;;4.40;100.00
51287;BME280;37364;46.974;18.916;2023-02-22T02:55:59;151411.91;;;4.22;100.00
51287;BME280;37364;46.974;18.916;2023-02-22T02:58:32;151384.81;;;4.11;100.00
51287;BME280;37364;46.974;18.916;2023-02-22T03:01:28;151361.59;;;4.02;100.00
51287;BME280;37364;46.974;18.916;2023-02-22T03:04:16;151351.31;;;3.97;100.00
51287;BME280;37364;46.974;18.916;2023-02-22T03:07:09;151331.97;;;3.90;100.00
51287;BME280;37364;46.974;18.916;2023-02-22T03:09:55;151297.19;;;3.76;100.00
51287;BME280;37364;46.974;18.916;2023-02-22T03:12:37;151274.03;;;3.67;100.00
51287;BME280;37364;46.974;18.916;2023-02-22T03:15:21;151261.16;;;3.62;100.00
51287;BME280;37364;46.974;18.916;2023-02-22T03:18:03;151248.25;;;3.56;100.00
51287;BME280;37364;46.974;18.916;2023-02-22T03:20:42;151230.25;;;3.49;100.00
51287;BME280;37364;46.974;18.916;2023-02-22T03:23:22;151203.19;;;3.39;100.00
51287;BME280;37364;46.974;18.916;2023-02-22T03:25:58;151185.19;;;3.31;100.00
51287;BME280;37364;46.974;18.916;2023-02-22T03:28:37;151168.41;;;3.25;100.00
51287;BME280;37364;46.974;18.916;2023-02-22T03:31:14;151154.25;;;3.19;100.00
51287;BME280;37364;46.974;18.916;2023-02-22T03:33:49;151138.78;;;3.13;100.00
51287;BME280;37364;46.974;18.916;2023-02-22T03:36:24;151129.78;;;3.09;100.00
51287;BME280;37364;46.974;18.916;2023-02-22T03:39:01;151127.22;;;3.08;100.00
51287;BME280;37364;46.974;18.916;2023-02-22T03:41:34;151097.63;;;2.96;100.00
51287;BME280;37364;46.974;18.916;2023-02-22T03:44:11;151095.00;;;2.95;100.00
51287;BME280;37364;46.974;18.916;2023-02-22T03:46:45;151113.06;;;3.03;100.00
51287;BME280;37364;46.974;18.916;2023-02-22T03:49:26;151101.50;;;2.98;100.00
51287;BME280;37364;46.974;18.916;2023-02-22T03:52:01;151098.88;;;2.97;100.00
51287;BME280;37364;46.974;18.916;2023-02-22T03:54:39;151115.59;;;3.04;100.00
51287;BME280;37364;46.974;18.916;2023-02-22T03:57:13;151113.06;;;3.03;100.00
51287;BME280;37364;46.974;18.916;2023-02-22T03:59:57;151132.38;;;3.10;100.00
51287;BME280;37364;46.974;18.916;2023-02-22T04:02:38;151118.19;;;3.05;100.00
51287;BME280;37364;46.974;18.916;2023-02-22T04:05:19;151155.56;;;3.20;100.00
51287;BME280;37364;46.974;18.916;2023-02-22T04:07:55;151192.88;;;3.34;100.00
51287;BME280;37364;46.974;18.916;2023-02-22T04:10:29;151177.44;;;3.28;100.00
51287;BME280;37364;46.974;18.916;2023-02-22T04:13:01;151171.00;;;3.26;100.00
51287;BME280;37364;46.974;18.916;2023-02-22T04:15:35;151182.56;;;3.30;100.00
51287;BME280;37364;46.974;18.916;2023-02-22T04:18:10;151207.06;;;3.40;100.00
51287;BME280;37364;46.974;18.916;2023-02-22T04:20:45;151258.53;;;3.61;100.00
51287;BME280;37364;46.974;18.916;2023-02-22T04:23:58;151362.94;;;4.02;100.00
51287;BME280;37364;46.974;18.916;2023-02-22T04:26:34;151361.59;;;4.02;100.00
51287;BME280;37364;46.974;18.916;2023-02-22T04:29:06;151402.88;;;4.18;100.00
51287;BME280;37364;46.974;18.916;2023-02-22T04:31:39;151401.59;;;4.18;100.00
51287;BME280;37364;46.974;18.916;2023-02-22T04:34:17;151378.38;;;4.08;100.00
51287;BME280;37364;46.974;18.916;2023-02-22T04:36:48;151365.47;;;4.03;100.00
51287;BME280;37364;46.974;18.916;2023-02-22T04:39:23;151444.09;;;4.34;100.00
51287;BME280;37364;46.974;18.916;2023-02-22T04:42:07;151548.47;;;4.76;100.00
51287;BME280;37364;46.974;18.916;2023-02-22T04:44:39;151582.00;;;4.89;100.00
51287;BME280;37364;46.974;18.916;2023-02-22T04:47:10;151592.31;;;4.93;100.00
51287;BME280;37364;46.974;18.916;2023-02-22T04:49:42;151587.16;;;4.91;100.00
51287;BME280;37364;46.974;18.916;2023-02-22T04:52:13;151614.25;;;5.02;100.00
51287;BME280;37364;46.974;18.916;2023-02-22T04:54:44;151627.13;;;5.07;100.00
51287;BME280;37364;46.974;18.916;2023-02-22T04:57:17;151605.22;;;4.99;100.00
51287;BME280;37364;46.974;18.916;2023-02-22T04:59:49;151582.00;;;4.89;100.00
51287;BME280;37364;46.974;18.916;2023-02-22T05:02:22;151557.50;;;4.80;100.00
51287;BME280;37364;46.974;18.916;2023-02-22T05:04:53;151468.56;;;4.44;100.00
51287;BME280;37364;46.974;18.916;2023-02-22T05:07:26;151369.34;;;4.05;100.00
51287;BME280;37364;46.974;18.916;2023-02-22T05:09:57;151315.25;;;3.83;100.00
51287;BME280;37364;46.974;18.916;2023-02-22T05:12:32;151307.50;;;3.80;100.00
51287;BME280;37364;46.974;18.916;2023-02-22T05:15:03;151288.22;;;3.72;100.00
51287;BME280;37364;46.974;18.916;2023-02-22T05:17:36;151274.03;;;3.67;100.00
51287;BME280;37364;46.974;18.916;2023-02-22T05:20:09;151253.41;;;3.59;100.00
51287;BME280;37364;46.974;18.916;2023-02-22T05:22:45;151241.81;;;3.54;100.00
51287;BME280;37364;46.974;18.916;2023-02-22T05:25:18;151231.53;;;3.50;100.00
51287;BME280;37364;46.974;18.916;2023-02-22T05:27:54;151217.34;;;3.44;100.00
51287;BME280;37364;46.974;18.916;2023-02-22T05:30:27;151216.06;;;3.44;100.00
51287;BME280;37364;46.974;18.916;2023-02-22T05:32:59;151203.19;;;3.39;100.00
51287;BME280;37364;46.974;18.916;2023-02-22T05:35:30;151212.19;;;3.42;100.00
51287;BME280;37364;46.974;18.916;2023-02-22T05:38:00;151205.78;;;3.40;100.00
51287;BME280;37364;46.974;18.916;2023-02-22T05:40:31;151209.66;;;3.41;100.00
51287;BME280;37364;46.974;18.916;2023-02-22T05:43:05;151201.91;;;3.38;100.00
51287;BME280;37364;46.974;18.916;2023-02-22T05:45:36;151203.19;;;3.39;100.00
51287;BME280;37364;46.974;18.916;2023-02-22T05:48:07;151200.63;;;3.38;100.00
51287;BME280;37364;46.974;18.916;2023-02-22T05:50:39;151192.88;;;3.34;100.00
51287;BME280;37364;46.974;18.916;2023-02-22T05:53:10;151191.59;;;3.34;100.00
51287;BME280;37364;46.974;18.916;2023-02-22T05:55:40;151176.16;;;3.28;100.00
51287;BME280;37364;46.974;18.916;2023-02-22T05:58:15;151181.31;;;3.30;100.00
51287;BME280;37364;46.974;18.916;2023-02-22T06:00:47;151195.47;;;3.35;100.00
51287;BME280;37364;46.974;18.916;2023-02-22T06:03:18;151204.44;;;3.39;100.00
51287;BME280;37364;46.974;18.916;2023-02-22T06:05:49;151198.03;;;3.36;100.00
51287;BME280;37364;46.974;18.916;2023-02-22T06:08:19;151221.22;;;3.46;100.00
51287;BME280;37364;46.974;18.916;2023-02-22T06:10:50;151262.41;;;3.62;100.00
51287;BME280;37364;46.974;18.916;2023-02-22T06:13:23;151275.31;;;3.67;100.00
51287;BME280;37364;46.974;18.916;2023-02-22T06:15:54;151316.53;;;3.84;100.00
51287;BME280;37364;46.974;18.916;2023-02-22T06:18:25;151326.81;;;3.88;100.00
51287;BME280;37364;46.974;18.916;2023-02-22T06:20:57;151335.84;;;3.91;100.00
51287;BME280;37364;46.974;18.916;2023-02-22T06:23:28;151351.31;;;3.97;100.00
51287;BME280;37364;46.974;18.916;2023-02-22T06:25:58;151355.19;;;3.99;100.00
51287;BME280;37364;46.974;18.916;2023-02-22T06:28:31;151365.47;;;4.03;100.00
51287;BME280;37364;46.974;18.916;2023-02-22T06:31:02;151399.00;;;4.16;100.00
51287;BME280;37364;46.974;18.916;2023-02-22T06:33:33;151413.16;;;4.22;100.00
51287;BME280;37364;46.974;18.916;2023-02-22T06:36:05;151424.75;;;4.27;100.00
51287;BME280;37364;46.974;18.916;2023-02-22T06:38:36;151450.50;;;4.37;100.00
51287;BME280;37364;46.974;18.916;2023-02-22T06:41:07;151467.31;;;4.44;100.00
51287;BME280;37364;46.974;18.916;2023-02-22T06:43:41;151480.22;;;4.49;100.00
51287;BME280;37364;46.974;18.916;2023-02-22T06:46:12;151518.84;;;4.64;100.00
51287;BME280;37364;46.974;18.916;2023-02-22T06:48:43;151530.47;;;4.69;100.00
51287;BME280;37364;46.974;18.916;2023-02-22T06:51:13;151557.50;;;4.80;100.00
51287;BME280;37364;46.974;18.916;2023-02-22T06:53:44;151618.16;;;5.04;100.00
51287;BME280;37364;46.974;18.916;2023-02-22T06:56:14;151663.28;;;5.22;100.00
51287;BME280;37364;46.974;18.916;2023-02-22T06:58:48;151699.38;;;5.36;100.00
51287;BME280;37364;46.974;18.916;2023-02-22T07:01:18;151732.91;;;5.49;100.00
51287;BME280;37364;46.974;18.916;2023-02-22T07:03:56;151735.47;;;5.50;100.00
51287;BME280;37364;46.974;18.916;2023-02-22T07:06:28;151759.97;;;5.60;100.00
51287;BME280;37364;46.974;18.916;2023-02-22T07:08:59;151780.59;;;5.68;100.00
51287;BME280;37364;46.974;18.916;2023-02-22T07:11:30;151814.16;;;5.82;100.00
51287;BME280;37364;46.974;18.916;2023-02-22T07:14:04;151856.81;;;5.99;100.00
51287;BME280;37364;46.974;18.916;2023-02-22T07:16:35;151898.09;;;6.15;100.00
51287;BME280;37364;46.974;18.916;2023-02-22T07:19:06;151923.94;;;6.25;100.00
51287;BME280;37364;46.974;18.916;2023-02-22T07:21:37;151954.91;;;6.38;100.00
51287;BME280;37364;46.974;18.916;2023-02-22T07:24:07;152009.13;;;6.59;100.00
51287;BME280;37364;46.974;18.916;2023-02-22T07:26:39;152046.53;;;6.74;100.00
51287;BME280;37364;46.974;18.916;2023-02-22T07:29:12;152158.88;;;7.19;100.00
51287;BME280;37364;46.974;18.916;2023-02-22T07:31:43;152236.41;;;7.49;100.00
51287;BME280;37364;46.974;18.916;2023-02-22T07:34:13;152308.75;;;7.78;100.00
51287;BME280;37364;46.974;18.916;2023-02-22T07:36:44;152391.44;;;8.11;100.00
51287;BME280;37364;46.974;18.916;2023-02-22T07:39:15;152492.34;;;8.51;100.00
51287;BME280;37364;46.974;18.916;2023-02-22T07:41:46;152556.97;;;8.77;100.00
51287;BME280;37364;46.974;18.916;2023-02-22T07:44:26;152584.09;;;8.87;100.00
51287;BME280;37364;46.974;18.916;2023-02-22T07:46:56;152598.34;;;8.93;100.00
51287;BME280;37364;46.974;18.916;2023-02-22T07:49:29;152624.19;;;9.03;100.00
51287;BME280;37364;46.974;18.916;2023-02-22T07:52:01;152634.53;;;9.07;100.00
51287;BME280;37364;46.974;18.916;2023-02-22T07:54:32;152685.00;;;9.27;100.00
51287;BME280;37364;46.974;18.916;2023-02-22T07:57:03;152638.41;;;9.09;100.00
51287;BME280;37364;46.974;18.916;2023-02-22T07:59:37;152651.38;;;9.14;100.00
51287;BME280;37364;46.974;18.916;2023-02-22T08:02:14;152641.03;;;9.10;100.00
51287;BME280;37364;46.974;18.916;2023-02-22T08:04:45;152606.13;;;8.96;100.00
51287;BME280;37364;46.974;18.916;2023-02-22T08:07:16;152663.00;;;9.19;100.00
51287;BME280;37364;46.974;18.916;2023-02-22T08:09:46;152683.69;;;9.27;100.00
51287;BME280;37364;46.974;18.916;2023-02-22T08:12:17;152663.00;;;9.19;100.00
51287;BME280;37364;46.974;18.916;2023-02-22T08:14:50;152697.91;;;9.33;100.00
51287;BME280;37364;46.974;18.916;2023-02-22T08:17:20;152719.94;;;9.41;100.00
51287;BME280;37364;46.974;18.916;2023-02-22T08:19:51;152688.84;;;9.29;100.00
51287;BME280;37364;46.974;18.916;2023-02-22T08:22:22;152696.63;;;9.32;100.00
51287;BME280;37364;46.974;18.916;2023-02-22T08:25:05;152723.81;;;9.43;100.00
51287;BME280;37364;46.974;18.916;2023-02-22T08:27:42;152743.19;;;9.50;100.00
51287;BME280;37364;46.974;18.916;2023-02-22T08:30:27;152757.44;;;9.56;100.00
51287;BME280;37364;46.974;18.916;2023-02-22T08:33:13;152740.63;;;9.49;100.00
51287;BME280;37364;46.974;18.916;2023-02-22T08:35:47;152743.19;;;9.50;100.00
51287;BME280;37364;46.974;18.916;2023-02-22T08:38:24;152785.91;;;9.67;100.00
51287;BME280;37364;46.974;18.916;2023-02-22T08:40:58;152811.78;;;9.78;100.00
51287;BME280;37364;46.974;18.916;2023-02-22T08:43:30;152738.00;;;9.48;100.00
51287;BME280;37364;46.974;18.916;2023-02-22T08:46:05;152807.94;;;9.76;100.00
51287;BME280;37364;46.974;18.916;2023-02-22T08:48:57;152855.78;;;9.95;100.00
51287;BME280;37364;46.974;18.916;2023-02-22T08:51:36;152881.66;;;10.05;100.00
51287;BME280;37364;46.974;18.916;2023-02-22T08:54:11;152868.72;;;10.00;100.00
51287;BME280;37364;46.974;18.916;2023-02-22T08:56:48;152910.13;;;10.17;100.00
51287;BME280;37364;46.974;18.916;2023-02-22T08:59:20;152974.91;;;10.42;100.00
51287;BME280;37364;46.974;18.916;2023-02-22T09:01:55;152980.06;;;10.44;100.00
51287;BME280;37364;46.974;18.916;2023-02-22T09:04:40;152968.44;;;10.40;100.00
51287;BME280;37364;46.974;18.916;2023-02-22T09:07:21;152976.22;;;10.43;100.00
51287;BME280;37364;46.974;18.916;2023-02-22T09:09:55;152996.94;;;10.51;100.00
51287;BME280;37364;46.974;18.916;2023-02-22T09:12:25;153017.63;;;10.59;100.00
51287;BME280;37364;46.974;18.916;2023-02-22T09:14:55;153015.03;;;10.58;100.00
51287;BME280;37364;46.974;18.916;2023-02-22T09:17:28;152974.91;;;10.42;100.00
51287;BME280;37364;46.974;18.916;2023-02-22T09:20:01;152999.50;;;10.52;100.00
51287;BME280;37364;46.974;18.916;2023-02-22T09:22:32;153043.53;;;10.69;100.00
51287;BME280;37364;46.974;18.916;2023-02-22T09:25:03;153026.72;;;10.63;100.00
51287;BME280;37364;46.974;18.916;2023-02-22T09:27:45;153082.38;;;10.85;100.00
51287;BME280;37364;46.974;18.916;2023-02-22T09:30:18;153100.53;;;10.92;100.00
51287;BME280;37364;46.974;18.916;2023-02-22T09:32:57;153101.81;;;10.93;100.00
51287;BME280;37364;46.974;18.916;2023-02-22T09:35:28;153075.91;;;10.82;100.00
51287;BME280;37364;46.974;18.916;2023-02-22T09:38:04;153092.72;;;10.89;100.00
51287;BME280;37364;46.974;18.916;2023-02-22T09:40:40;153131.59;;;11.04;100.00
51287;BME280;37364;46.974;18.916;2023-02-22T09:43:36;153136.78;;;11.06;100.00
51287;BME280;37364;46.974;18.916;2023-02-22T09:46:20;153160.09;;;11.16;100.00
51287;BME280;37364;46.974;18.916;2023-02-22T09:49:02;153180.81;;;11.24;100.00
51287;BME280;37364;46.974;18.916;2023-02-22T09:51:39;153202.81;;;11.33;100.00
51287;BME280;37364;46.974;18.916;2023-02-22T09:54:17;153157.47;;;11.15;100.00
51287;BME280;37364;46.974;18.916;2023-02-22T09:56:52;153171.75;;;11.20;100.00
51287;BME280;37364;46.974;18.916;2023-02-22T09:59:31;153179.53;;;11.23;100.00
51287;BME280;37364;46.974;18.916;2023-02-22T10:02:22;153167.84;;;11.19;100.00
51287;BME280;37364;46.974;18.916;2023-02-22T10:05:12;153208.00;;;11.35;100.00
51287;BME280;37364;46.974;18.916;2023-02-22T10:07:57;153211.88;;;11.36;100.00
51287;BME280;37364;46.974;18.916;2023-02-22T10:10:38;153186.00;;;11.26;100.00
51287;BME280;37364;46.974;18.916;2023-02-22T10:13:26;153268.91;;;11.59;100.00
51287;BME280;37364;46.974;18.916;2023-02-22T10:16:02;153301.28;;;11.72;100.00
51287;BME280;37364;46.974;18.916;2023-02-22T10:18:57;153236.50;;;11.46;100.00
51287;BME280;37364;46.974;18.916;2023-02-22T10:21:49;153300.00;;;11.71;100.00
51287;BME280;37364;46.974;18.916;2023-02-22T10:24:37;153200.25;;;11.32;100.00
51287;BME280;37364;46.974;18.916;2023-02-22T10:27:17;153268.91;;;11.59;100.00
51287;BME280;37364;46.974;18.916;2023-02-22T10:30:01;153204.16;;;11.33;100.00
51287;BME280;37364;46.974;18.916;2023-02-22T10:32:49;153154.91;;;11.14;100.00
51287;BME280;37364;46.974;18.916;2023-02-22T10:35:25;153187.28;;;11.26;100.00
51287;BME280;37364;46.974;18.916;2023-02-22T10:38:13;153278.00;;;11.62;100.00
51287;BME280;37364;46.974;18.916;2023-02-22T10:40:51;153294.81;;;11.69;100.00
51287;BME280;37364;46.974;18.916;2023-02-22T10:43:37;153305.19;;;11.73;100.00
51287;BME280;37364;46.974;18.916;2023-02-22T10:46:20;153336.28;;;11.85;100.00
51287;BME280;37364;46.974;18.916;2023-02-22T10:49:03;153351.84;;;11.92;100.00
51287;BME280;37364;46.974;18.916;2023-02-22T10:52:10;153333.69;;;11.84;100.00
51287;BME280;37364;46.974;18.916;2023-02-22T10:55:11;153350.56;;;11.91;100.00
51287;BME280;37364;46.974;18.916;2023-02-22T10:58:04;153406.28;;;12.13;100.00
51287;BME280;37364;46.974;18.916;2023-02-22T11:00:56;153385.56;;;12.05;100.00
51287;BME280;37364;46.974;18.916;2023-02-22T11:03:36;153397.25;;;12.10;100.00
51287;BME280;37364;46.974;18.916;2023-02-22T11:07:05;153407.63;;;12.14;100.00
51287;BME280;37364;46.974;18.916;2023-02-22T11:09:48;153403.72;;;12.12;100.00
51287;BME280;37364;46.974;18.916;2023-02-22T11:12:35;153432.25;;;12.23;100.00
51287;BME280;37364;46.974;18.916;2023-02-22T11:15:28;153385.56;;;12.05;100.00
51287;BME280;37364;46.974;18.916;2023-02-22T11:18:01;153385.56;;;12.05;100.00
51287;BME280;37364;46.974;18.916;2023-02-22T11:20:38;153362.28;;;11.96;100.00
51287;BME280;37364;46.974;18.916;2023-02-22T11:23:09;153383.00;;;12.04;100.00
51287;BME280;37364;46.974;18.916;2023-02-22T11:25:44;153377.81;;;12.02;100.00
51287;BME280;37364;46.974;18.916;2023-02-22T11:28:20;153407.63;;;12.14;100.00
51287;BME280;37364;46.974;18.916;2023-02-22T11:31:07;153375.19;;;12.01;100.00
51287;BME280;37364;46.974;18.916;2023-02-22T11:33:53;153320.72;;;11.79;100.00
51287;BME280;37364;46.974;18.916;2023-02-22T11:36:33;153340.16;;;11.87;100.00
51287;BME280;37364;46.974;18.916;2023-02-22T11:39:22;153406.28;;;12.13;100.00
51287;BME280;37364;46.974;18.916;2023-02-22T11:41:54;153420.56;;;12.19;100.00
51287;BME280;37364;46.974;18.916;2023-02-22T11:44:35;153438.72;;;12.26;100.00
51287;BME280;37364;46.974;18.916;2023-02-22T11:47:18;153437.44;;;12.25;100.00
51287;BME280;37364;46.974;18.916;2023-02-22T11:49:49;153388.19;;;12.06;100.00
51287;BME280;37364;46.974;18.916;2023-02-22T11:52:23;153377.81;;;12.02;100.00
51287;BME280;37364;46.974;18.916;2023-02-22T11:55:11;153414.09;;;12.16;100.00
51287;BME280;37364;46.974;18.916;2023-02-22T11:58:29;153418.00;;;12.18;100.00
51287;BME280;37364;46.974;18.916;2023-02-22T12:01:20;153430.91;;;12.23;100.00
51287;BME280;37364;46.974;18.916;2023-02-22T12:04:37;153390.75;;;12.07;100.00
51287;BME280;37364;46.974;18.916;2023-02-22T12:10:31;153266.31;;;11.58;100.00
51287;BME280;37364;46.974;18.916;2023-02-22T12:13:21;153336.28;;;11.85;100.00
51287;BME280;37364;46.974;18.916;2023-02-22T12:16:01;153344.06;;;11.88;100.00
51287;BME280;37364;46.974;18.916;2023-02-22T12:18:42;153342.78;;;11.88;100.00
51287;BME280;37364;46.974;18.916;2023-02-22T12:21:19;153350.56;;;11.91;100.00
51287;BME280;37364;46.974;18.916;2023-02-22T12:23:57;153349.28;;;11.91;100.00
51287;BME280;37364;46.974;18.916;2023-02-22T12:26:32;153376.50;;;12.01;100.00
51287;BME280;37364;46.974;18.916;2023-02-22T12:29:08;153371.31;;;11.99;100.00
51287;BME280;37364;46.974;18.916;2023-02-22T12:31:43;153399.84;;;12.11;100.00
51287;BME280;37364;46.974;18.916;2023-02-22T12:34:25;153442.63;;;12.27;100.00
51287;BME280;37364;46.974;18.916;2023-02-22T12:37:04;153504.81;;;12.52;100.00
51287;BME280;37364;46.974;18.916;2023-02-22T12:39:48;153454.28;;;12.32;100.00
51287;BME280;37364;46.974;18.916;2023-02-22T12:42:25;153388.19;;;12.06;100.00
51287;BME280;37364;46.974;18.916;2023-02-22T12:45:00;153521.69;;;12.59;100.00
51287;BME280;37364;46.974;18.916;2023-02-22T12:47:41;153507.44;;;12.53;100.00
51287;BME280;37364;46.974;18.916;2023-02-22T12:50:20;153517.81;;;12.57;100.00
51287;BME280;37364;46.974;18.916;2023-02-22T12:52:58;153499.63;;;12.50;100.00
51287;BME280;37364;46.974;18.916;2023-02-22T12:55:35;153542.44;;;12.67;100.00
51287;BME280;37364;46.974;18.916;2023-02-22T12:58:20;153519.09;;;12.58;100.00
51287;BME280;37364;46.974;18.916;2023-02-22T13:00:58;153535.97;;;12.64;100.00
51287;BME280;37364;46.974;18.916;2023-02-22T13:03:41;153548.91;;;12.70;100.00
51287;BME280;37364;46.974;18.916;2023-02-22T13:06:33;153563.19;;;12.75;100.00
51287;BME280;37364;46.974;18.916;2023-02-22T13:09:25;153543.72;;;12.68;100.00
51287;BME280;37364;46.974;18.916;2023-02-22T13:12:05;153507.44;;;12.53;100.00
51287;BME280;37364;46.974;18.916;2023-02-22T13:14:45;153490.56;;;12.46;100.00
51287;BME280;37364;46.974;18.916;2023-02-22T13:17:25;153539.81;;;12.66;100.00
51287;BME280;37364;46.974;18.916;2023-02-22T13:20:00;153517.81;;;12.57;100.00
51287;BME280;37364;46.974;18.916;2023-02-22T13:22:40;153538.53;;;12.65;100.00
51287;BME280;37364;46.974;18.916;2023-02-22T13:25:18;153558.00;;;12.73;100.00
51287;BME280;37364;46.974;18.916;2023-02-22T13:27:54;153580.06;;;12.82;100.00
51287;BME280;37364;46.974;18.916;2023-02-22T13:30:36;153530.78;;;12.62;100.00